Time;durP1;ratioP1;P1;durP2;ratioP2;P2;SDS_P1;SDS_P2;PMS_P1;PMS_P2;Temp;Humidity;BMP_temperature;BMP_pressure;BME280_temperature;BME280_humidity;BME280_pressure;Samples;Min_cycle;Max_cycle;Signal;HPM_P1;HPM_P2
2023/10/08 00:01:33;;;;;;;14.75;5.55;;;14.50;99.90;;;;;;5010815;28;20068;-65
2023/10/08 00:04:04;;;;;;;10.00;5.07;;;14.50;99.90;;;;;;5006367;28;20061;-64
2023/10/08 00:06:32;;;;;;;13.30;5.45;;;14.50;99.90;;;;;;4990132;28;20046;-64
2023/10/08 00:09:06;;;;;;;11.77;4.90;;;14.60;99.90;;;;;;5004739;28;20035;-65
2023/10/08 00:11:37;;;;;;;14.13;4.97;;;14.60;99.90;;;;;;4973624;28;20057;-64
2023/10/08 00:14:09;;;;;;;10.80;5.05;;;14.60;99.90;;;;;;4991293;28;20050;-65
2023/10/08 00:16:40;;;;;;;14.35;5.47;;;14.60;99.90;;;;;;5008610;28;20046;-63
2023/10/08 00:19:09;;;;;;;13.15;5.20;;;14.60;99.90;;;;;;5007131;28;20085;-66
2023/10/08 00:21:38;;;;;;;11.23;4.50;;;14.70;99.90;;;;;;5009088;28;20045;-63
2023/10/08 00:24:06;;;;;;;11.45;4.80;;;14.70;99.90;;;;;;5010870;28;20050;-65
2023/10/08 00:26:39;;;;;;;11.07;5.03;;;14.70;99.90;;;;;;4978227;28;20065;-65
2023/10/08 00:29:15;;;;;;;12.13;4.82;;;14.70;99.90;;;;;;5004592;28;20053;-65
2023/10/08 00:31:45;;;;;;;14.35;5.40;;;14.70;99.90;;;;;;5008276;28;20052;-65
2023/10/08 00:34:13;;;;;;;13.07;4.85;;;14.70;99.90;;;;;;4997122;28;20042;-64
2023/10/08 00:36:46;;;;;;;13.75;4.82;;;14.70;99.90;;;;;;4988989;28;20057;-64
2023/10/08 00:39:16;;;;;;;11.32;4.93;;;14.70;99.90;;;;;;5004999;28;20054;-62
2023/10/08 00:41:45;;;;;;;12.13;4.50;;;14.70;99.90;;;;;;5002872;28;20047;-66
2023/10/08 00:44:16;;;;;;;11.93;4.82;;;14.70;99.90;;;;;;4991186;28;20486;-66
2023/10/08 00:46:50;;;;;;;11.57;4.00;;;14.70;99.90;;;;;;4995657;28;20037;-65
2023/10/08 00:52:25;;;;;;;11.35;3.97;;;14.80;99.90;;;;;;5000444;28;20053;-66
2023/10/08 00:57:23;;;;;;;12.43;4.65;;;14.90;99.90;;;;;;4993036;28;20057;-65
2023/10/08 00:59:55;;;;;;;11.75;4.57;;;14.90;99.90;;;;;;5003710;28;20525;-65
2023/10/08 01:02:46;;;;;;;8.30;4.05;;;15.00;99.90;;;;;;4987222;28;20046;-65
2023/10/08 01:05:23;;;;;;;10.50;5.03;;;15.00;99.90;;;;;;4992251;28;20093;-65
2023/10/08 01:07:53;;;;;;;10.45;4.65;;;15.00;99.90;;;;;;5005739;28;20052;-64
2023/10/08 01:10:21;;;;;;;10.68;4.63;;;14.90;99.90;;;;;;5006545;28;20038;-65
2023/10/08 01:13:15;;;;;;;11.10;4.40;;;14.90;99.90;;;;;;5007455;28;20041;-65
2023/10/08 01:15:37;;;;;;;14.15;4.70;;;14.90;99.90;;;;;;5006405;28;20057;-64
2023/10/08 01:18:14;;;;;;;11.80;4.72;;;14.80;99.90;;;;;;5007263;28;20046;-66
2023/10/08 01:23:13;;;;;;;11.13;4.32;;;14.70;99.90;;;;;;4999802;28;20053;-65
2023/10/08 01:25:42;;;;;;;13.52;4.63;;;14.60;99.90;;;;;;4998742;28;20471;-65
2023/10/08 01:28:20;;;;;;;10.07;4.13;;;14.60;99.90;;;;;;4991707;28;20516;-65
2023/10/08 01:30:53;;;;;;;9.90;4.07;;;14.50;99.90;;;;;;4996127;28;20424;-63
2023/10/08 01:33:22;;;;;;;15.18;4.35;;;14.50;99.90;;;;;;4995908;28;20409;-65
2023/10/08 01:35:50;;;;;;;13.15;4.72;;;14.40;99.90;;;;;;5011597;28;20050;-62
2023/10/08 01:38:23;;;;;;;13.50;4.95;;;14.30;99.90;;;;;;5006474;28;20057;-64
2023/10/08 01:40:51;;;;;;;14.20;4.47;;;14.30;99.90;;;;;;5005063;28;20050;-63
2023/10/08 01:43:20;;;;;;;11.35;5.25;;;14.20;99.90;;;;;;4992950;28;20204;-61
2023/10/08 01:45:51;;;;;;;11.32;4.45;;;14.20;99.90;;;;;;4997370;28;20041;-62
2023/10/08 01:48:20;;;;;;;12.82;4.15;;;14.10;99.90;;;;;;4996231;28;20409;-59
2023/10/08 01:50:49;;;;;;;13.18;4.55;;;14.10;99.90;;;;;;5009838;28;20046;-59
2023/10/08 01:53:20;;;;;;;13.68;5.00;;;14.00;99.90;;;;;;5005334;28;20054;-59
2023/10/08 01:55:52;;;;;;;12.70;4.78;;;14.00;99.90;;;;;;4992338;28;20046;-58
2023/10/08 01:58:22;;;;;;;10.50;4.80;;;14.00;99.90;;;;;;5007624;28;20053;-59
2023/10/08 02:00:58;;;;;;;10.15;4.18;;;13.90;99.90;;;;;;5007065;28;20497;-65
2023/10/08 02:03:27;;;;;;;12.57;5.00;;;13.90;99.90;;;;;;5009102;28;20038;-64
2023/10/08 02:05:59;;;;;;;10.60;4.45;;;13.80;99.90;;;;;;5011688;28;20520;-65
2023/10/08 02:08:27;;;;;;;9.70;4.43;;;13.80;99.90;;;;;;5012187;28;20046;-63
2023/10/08 02:10:55;;;;;;;13.07;5.18;;;13.80;99.90;;;;;;5011077;28;20050;-66
2023/10/08 02:13:22;;;;;;;11.73;5.15;;;13.70;99.90;;;;;;5010753;28;20486;-65
2023/10/08 02:15:54;;;;;;;13.25;4.63;;;13.60;99.90;;;;;;5011826;28;20050;-65
2023/10/08 02:18:25;;;;;;;10.45;4.95;;;13.60;99.90;;;;;;5004923;28;20597;-66
2023/10/08 02:20:53;;;;;;;13.27;4.80;;;13.50;99.90;;;;;;4992316;28;20486;-63
2023/10/08 02:23:21;;;;;;;12.25;4.70;;;13.50;99.90;;;;;;5011705;28;20053;-65
2023/10/08 02:25:49;;;;;;;15.55;5.30;;;13.50;99.90;;;;;;5000145;28;20045;-64
2023/10/08 02:28:20;;;;;;;14.48;5.05;;;13.40;99.90;;;;;;5006991;28;20057;-64
2023/10/08 02:30:47;;;;;;;10.52;4.82;;;13.40;99.90;;;;;;5010736;28;20626;-63
2023/10/08 02:33:15;;;;;;;15.32;5.07;;;13.40;99.90;;;;;;5009417;28;20409;-64
2023/10/08 02:35:46;;;;;;;18.73;5.57;;;13.30;99.90;;;;;;4991577;28;20038;-59
2023/10/08 02:38:24;;;;;;;9.65;4.57;;;13.30;99.90;;;;;;5009358;28;20042;-63
2023/10/08 02:40:56;;;;;;;14.57;4.97;;;13.30;99.90;;;;;;4992804;28;20548;-65
2023/10/08 02:43:24;;;;;;;12.88;5.82;;;13.30;99.90;;;;;;4994208;28;20045;-64
2023/10/08 02:45:52;;;;;;;15.00;5.50;;;13.20;99.90;;;;;;5009338;28;20414;-60
2023/10/08 02:48:20;;;;;;;12.38;5.53;;;13.20;99.90;;;;;;5005423;28;20046;-64
2023/10/08 02:50:48;;;;;;;13.38;5.28;;;13.20;99.90;;;;;;5000617;28;20041;-65
2023/10/08 02:53:20;;;;;;;13.55;5.85;;;13.20;99.90;;;;;;4993930;28;20409;-63
2023/10/08 02:55:49;;;;;;;14.13;5.60;;;13.10;99.90;;;;;;5010184;28;20076;-60
2023/10/08 02:58:20;;;;;;;11.38;5.05;;;13.10;99.90;;;;;;4997499;28;20060;-64
2023/10/08 03:00:49;;;;;;;12.15;5.28;;;13.10;99.90;;;;;;4990788;28;20046;-63
2023/10/08 03:03:24;;;;;;;13.25;5.82;;;13.10;99.90;;;;;;4990337;28;20060;-64
2023/10/08 03:05:53;;;;;;;13.85;5.95;;;13.00;99.90;;;;;;4975669;28;20038;-65
2023/10/08 03:08:23;;;;;;;14.32;5.47;;;13.00;99.90;;;;;;5006865;28;20073;-64
2023/10/08 03:10:55;;;;;;;14.13;5.65;;;12.90;99.90;;;;;;5005925;28;20046;-64
2023/10/08 03:13:26;;;;;;;11.98;5.32;;;13.00;99.90;;;;;;4991793;28;20054;-65
2023/10/08 03:18:37;;;;;;;11.82;4.55;;;12.80;99.90;;;;;;5001969;28;19925;-60
2023/10/08 03:21:56;;;;;;;14.00;5.32;;;12.80;99.90;;;;;;4995825;28;20054;-63
2023/10/08 03:23:58;;;;;;;14.55;5.30;;;12.80;99.90;;;;;;4990511;28;20134;-65
2023/10/08 03:26:45;;;;;;;12.50;5.63;;;12.80;99.90;;;;;;4996133;28;20046;-64
2023/10/08 03:29:15;;;;;;;13.55;5.30;;;12.80;99.90;;;;;;4993269;28;20379;-65
2023/10/08 03:34:19;;;;;;;16.58;6.13;;;12.70;99.90;;;;;;4993630;28;20058;-62
2023/10/08 03:36:50;;;;;;;15.33;5.47;;;12.70;99.90;;;;;;4994848;28;20051;-64
2023/10/08 03:39:18;;;;;;;12.48;5.22;;;12.70;99.90;;;;;;5003752;28;20050;-64
2023/10/08 03:42:05;;;;;;;13.25;5.80;;;12.70;99.90;;;;;;4995105;28;20038;-65
2023/10/08 03:44:37;;;;;;;13.75;5.15;;;12.70;99.90;;;;;;4995217;28;20045;-65
2023/10/08 03:47:10;;;;;;;13.65;5.38;;;12.70;99.90;;;;;;4999449;28;20072;-64
2023/10/08 03:49:45;;;;;;;11.82;4.68;;;12.60;99.90;;;;;;5011477;28;20049;-64
2023/10/08 03:52:13;;;;;;;13.40;5.93;;;12.60;99.90;;;;;;4993746;28;20051;-66
2023/10/08 03:54:48;;;;;;;13.75;4.95;;;12.60;99.90;;;;;;4995126;28;20413;-62
2023/10/08 03:57:25;;;;;;;12.10;5.32;;;12.60;99.90;;;;;;5003375;28;20054;-65
2023/10/08 03:59:58;;;;;;;15.10;5.40;;;12.60;99.90;;;;;;5014614;28;20219;-65
2023/10/08 04:03:04;;;;;;;12.18;5.65;;;12.60;99.90;;;;;;4998430;28;20055;-65
2023/10/08 04:05:27;;;;;;;9.55;4.88;;;12.50;99.90;;;;;;4993866;28;20058;-65
2023/10/08 04:13:09;;;;;;;14.20;5.95;;;12.50;99.90;;;;;;5014451;28;20054;-65
2023/10/08 04:15:40;;;;;;;18.38;5.55;;;12.40;99.90;;;;;;5012312;28;20062;-65
2023/10/08 04:18:10;;;;;;;11.23;5.93;;;12.40;99.90;;;;;;5012782;28;20053;-65
2023/10/08 04:20:38;;;;;;;10.43;5.00;;;12.40;99.90;;;;;;5014082;28;20061;-64
2023/10/08 04:23:13;;;;;;;15.35;5.32;;;12.40;99.90;;;;;;5013958;28;20393;-65
2023/10/08 04:25:42;;;;;;;11.00;5.10;;;12.40;99.90;;;;;;5014071;28;20053;-66
2023/10/08 04:28:17;;;;;;;10.25;5.25;;;12.40;99.90;;;;;;5014159;28;20056;-64
2023/10/08 04:30:45;;;;;;;13.55;5.22;;;12.40;99.90;;;;;;5000741;28;20069;-64
2023/10/08 04:33:14;;;;;;;15.50;5.70;;;12.30;99.90;;;;;;4994460;28;20057;-65
2023/10/08 04:35:55;;;;;;;10.98;5.50;;;12.30;99.90;;;;;;4993562;28;20490;-65
2023/10/08 04:38:28;;;;;;;11.45;5.35;;;12.30;99.90;;;;;;5003327;28;20543;-65
2023/10/08 04:41:01;;;;;;;12.93;6.03;;;12.30;99.90;;;;;;5011999;28;20046;-64
2023/10/08 04:43:30;;;;;;;15.00;5.60;;;12.20;99.90;;;;;;5012279;28;20053;-65
2023/10/08 04:46:04;;;;;;;11.55;5.30;;;12.20;99.90;;;;;;5013901;28;20397;-64
2023/10/08 04:48:33;;;;;;;16.23;6.00;;;12.20;99.90;;;;;;5002065;28;20395;-64
2023/10/08 04:51:02;;;;;;;16.95;6.10;;;12.10;99.90;;;;;;4997028;28;20047;-65
2023/10/08 04:53:37;;;;;;;12.07;6.35;;;12.10;99.90;;;;;;4990496;28;20058;-64
2023/10/08 04:56:14;;;;;;;13.05;5.60;;;12.10;99.90;;;;;;4989250;28;20425;-65
2023/10/08 04:58:46;;;;;;;15.35;5.88;;;12.10;99.90;;;;;;5004101;28;20056;-60
2023/10/08 05:01:17;;;;;;;13.13;5.75;;;12.00;99.90;;;;;;5010104;28;20046;-63
2023/10/08 05:06:50;;;;;;;13.43;5.57;;;11.90;99.90;;;;;;5001975;28;20041;-64
2023/10/08 05:22:43;;;;;;;12.55;5.43;;;11.80;99.90;;;;;;4995470;28;20046;-61
2023/10/08 05:33:06;;;;;;;12.23;5.57;;;11.70;99.90;;;;;;5007809;28;20626;-59
2023/10/08 05:41:27;;;;;;;12.88;5.80;;;11.70;99.90;;;;;;4988156;28;20502;-60
2023/10/08 05:44:14;;;;;;;13.90;5.13;;;11.70;99.90;;;;;;5000237;28;20046;-62
2023/10/08 05:57:14;;;;;;;11.88;6.10;;;11.60;99.90;;;;;;5006347;28;20042;-66
2023/10/08 06:13:04;;;;;;;10.65;5.13;;;11.60;99.90;;;;;;4998498;28;20486;-64
2023/10/08 06:18:28;;;;;;;15.07;6.05;;;11.50;99.90;;;;;;4992024;28;20050;-62
2023/10/08 06:21:11;;;;;;;14.18;6.28;;;11.50;99.90;;;;;;5000698;28;20052;-60
2023/10/08 06:23:42;;;;;;;11.70;5.25;;;11.50;99.90;;;;;;4992911;28;20072;-65
2023/10/08 06:28:39;;;;;;;16.38;6.53;;;11.50;99.90;;;;;;5008177;28;20390;-65
2023/10/08 06:31:11;;;;;;;13.23;5.87;;;11.40;99.90;;;;;;5001498;28;20038;-65
2023/10/08 06:33:40;;;;;;;9.93;5.03;;;11.50;99.90;;;;;;4994636;28;20796;-64
2023/10/08 06:38:40;;;;;;;15.82;6.20;;;11.40;99.90;;;;;;4992973;28;20188;-65
2023/10/08 06:41:10;;;;;;;;;;;11.40;99.90;;;;;;4999822;28;20050;-65
2023/10/08 06:43:43;;;;;;;12.93;5.53;;;11.50;99.90;;;;;;5003842;28;19928;-64
2023/10/08 06:46:14;;;;;;;18.30;6.07;;;11.50;99.90;;;;;;5008358;28;20049;-65
2023/10/08 06:48:42;;;;;;;11.48;5.80;;;11.50;99.90;;;;;;5001147;28;20050;-65
2023/10/08 06:51:13;;;;;;;11.05;5.15;;;11.50;99.90;;;;;;4999754;28;20053;-64
2023/10/08 06:53:42;;;;;;;13.57;5.57;;;11.60;99.90;;;;;;4992877;28;20042;-66
2023/10/08 06:56:12;;;;;;;9.70;5.07;;;11.60;99.90;;;;;;4992266;28;20082;-65
2023/10/08 06:58:45;;;;;;;13.15;5.88;;;11.60;99.90;;;;;;5001999;28;20053;-65
2023/10/08 07:01:20;;;;;;;10.85;4.97;;;11.60;99.90;;;;;;4993541;28;20047;-59
2023/10/08 07:03:49;;;;;;;16.63;6.38;;;11.60;99.90;;;;;;4996995;28;20046;-65
2023/10/08 07:06:31;;;;;;;11.02;5.82;;;11.70;99.90;;;;;;4992156;28;20058;-66
2023/10/08 07:09:04;;;;;;;15.73;6.28;;;11.70;99.90;;;;;;5006583;28;20045;-64
2023/10/08 07:11:39;;;;;;;14.27;6.65;;;11.70;99.90;;;;;;5007666;28;20064;-64
2023/10/08 07:14:10;;;;;;;16.70;6.70;;;11.80;99.90;;;;;;5011057;28;20041;-66
2023/10/08 07:16:41;;;;;;;15.20;6.85;;;11.80;99.90;;;;;;4994488;28;20058;-65
2023/10/08 07:19:18;;;;;;;19.08;6.95;;;11.80;99.90;;;;;;5007004;28;20057;-65
2023/10/08 07:21:46;;;;;;;18.08;7.32;;;11.90;99.90;;;;;;4990413;28;20054;-63
2023/10/08 07:24:21;;;;;;;16.05;6.10;;;12.00;99.90;;;;;;4998529;28;20046;-65
2023/10/08 07:26:49;;;;;;;14.20;6.20;;;12.00;99.90;;;;;;4997377;28;20034;-64
2023/10/08 07:29:19;;;;;;;18.08;6.43;;;12.10;99.90;;;;;;5007643;28;20053;-66
2023/10/08 07:31:52;;;;;;;14.45;6.88;;;12.10;99.90;;;;;;5006181;28;20654;-64
2023/10/08 07:36:52;;;;;;;14.30;6.20;;;12.20;99.90;;;;;;4992197;28;20425;-63
2023/10/08 07:39:35;;;;;;;13.52;6.38;;;12.30;99.90;;;;;;4995507;28;20092;-63
2023/10/08 07:42:07;;;;;;;16.05;6.30;;;12.30;99.90;;;;;;5003367;28;20046;-62
2023/10/08 07:44:36;;;;;;;18.52;6.65;;;12.40;99.90;;;;;;5008417;28;20089;-61
2023/10/08 07:47:11;;;;;;;17.38;6.32;;;12.40;99.90;;;;;;5010424;28;20045;-60
2023/10/08 07:49:39;;;;;;;14.88;6.53;;;12.50;99.90;;;;;;5007337;28;20061;-61
2023/10/08 07:52:15;;;;;;;11.43;6.53;;;12.50;99.90;;;;;;4993576;28;20482;-66
2023/10/08 07:54:44;;;;;;;19.38;6.30;;;12.60;99.90;;;;;;5009911;28;20050;-64
2023/10/08 07:57:12;;;;;;;18.58;6.97;;;12.70;99.90;;;;;;5011203;28;20049;-65
2023/10/08 07:59:44;;;;;;;17.42;6.90;;;12.70;99.90;;;;;;4992539;28;20057;-63
2023/10/08 08:02:13;;;;;;;14.98;6.55;;;12.80;99.90;;;;;;4994777;28;20046;-62
2023/10/08 08:04:50;;;;;;;24.17;8.32;;;12.90;99.90;;;;;;4989579;28;20054;-59
2023/10/08 08:07:19;;;;;;;27.55;7.97;;;12.90;99.90;;;;;;4999211;28;20074;-60
2023/10/08 08:09:58;;;;;;;20.08;8.27;;;13.00;99.90;;;;;;5008085;28;20039;-61
2023/10/08 08:12:32;;;;;;;19.65;7.72;;;13.10;99.90;;;;;;5010237;28;20611;-60
2023/10/08 08:15:03;;;;;;;20.98;7.78;;;13.20;99.90;;;;;;5009836;28;20054;-63
2023/10/08 08:17:31;;;;;;;31.63;8.43;;;13.20;99.90;;;;;;5008204;28;20406;-62
2023/10/08 08:20:06;;;;;;;22.40;7.70;;;13.30;99.90;;;;;;4985200;28;20054;-60
2023/10/08 08:22:40;;;;;;;26.17;8.43;;;13.30;99.90;;;;;;4996405;28;20509;-60
2023/10/08 08:25:33;;;;;;;23.98;9.15;;;13.40;99.90;;;;;;4992140;28;20046;-61
2023/10/08 08:28:02;;;;;;;26.55;9.65;;;13.50;99.90;;;;;;4997470;28;20485;-59
2023/10/08 08:30:33;;;;;;;24.48;9.75;;;13.50;99.90;;;;;;5010746;28;20046;-64
2023/10/08 08:33:10;;;;;;;36.15;10.73;;;13.60;99.90;;;;;;5009933;28;20046;-61
2023/10/08 08:35:38;;;;;;;35.25;10.32;;;13.70;99.90;;;;;;4994026;28;20042;-64
2023/10/08 08:38:08;;;;;;;34.58;10.13;;;13.70;99.90;;;;;;5002739;28;20045;-60
2023/10/08 08:40:36;;;;;;;25.20;9.23;;;13.80;99.90;;;;;;5006359;28;20050;-60
2023/10/08 08:43:05;;;;;;;28.70;9.88;;;13.90;99.90;;;;;;5002533;28;20802;-60
2023/10/08 08:45:35;;;;;;;27.83;10.30;;;14.10;99.90;;;;;;5010366;28;20513;-60
2023/10/08 08:48:07;;;;;;;34.90;10.98;;;14.10;99.90;;;;;;5009956;28;20046;-62
2023/10/08 08:50:37;;;;;;;33.40;9.65;;;14.20;99.90;;;;;;4993760;28;20046;-60
2023/10/08 08:53:05;;;;;;;27.15;9.38;;;14.40;99.90;;;;;;4999398;28;20046;-60
2023/10/08 08:55:35;;;;;;;31.77;9.85;;;14.50;99.90;;;;;;5009437;28;20046;-60
2023/10/08 08:58:05;;;;;;;26.40;9.88;;;14.60;99.90;;;;;;5008276;28;20053;-59
2023/10/08 09:00:33;;;;;;;25.27;9.77;;;14.70;99.90;;;;;;5007190;28;20042;-61
2023/10/08 09:03:04;;;;;;;22.25;8.63;;;14.80;99.90;;;;;;5005392;28;20347;-59
2023/10/08 09:05:36;;;;;;;27.67;8.02;;;14.80;99.90;;;;;;4996429;28;20053;-61
2023/10/08 09:08:10;;;;;;;32.88;8.73;;;14.90;99.90;;;;;;5009893;28;20050;-60
2023/10/08 09:10:38;;;;;;;;;;;15.00;99.90;;;;;;5010739;28;20053;-60
2023/10/08 09:13:09;;;;;;;24.70;9.07;;;15.00;99.90;;;;;;5008380;28;19921;-64
2023/10/08 09:15:38;;;;;;;28.10;8.20;;;15.10;99.90;;;;;;5008783;28;20046;-66
2023/10/08 09:18:06;;;;;;;22.27;7.93;;;15.20;99.90;;;;;;5009178;28;20049;-64
2023/10/08 09:20:44;;;;;;;24.00;8.32;;;15.20;99.90;;;;;;4994793;28;20043;-60
2023/10/08 09:23:21;;;;;;;31.38;7.78;;;15.30;99.90;;;;;;5000640;28;20042;-66
2023/10/08 09:25:49;;;;;;;25.88;8.00;;;15.30;99.90;;;;;;5008693;28;20524;-66
2023/10/08 09:28:18;;;;;;;23.17;7.00;;;15.40;99.90;;;;;;5006268;28;20060;-65
2023/10/08 09:30:48;;;;;;;22.52;6.93;;;15.50;99.90;;;;;;5009622;28;20057;-66
2023/10/08 09:33:17;;;;;;;22.08;7.13;;;15.60;99.90;;;;;;5009172;28;20049;-66
2023/10/08 09:35:46;;;;;;;20.52;6.78;;;15.70;99.90;;;;;;5006645;28;20057;-66
2023/10/08 09:38:22;;;;;;;21.05;6.78;;;15.80;99.90;;;;;;5008944;28;20038;-66
2023/10/08 09:40:53;;;;;;;19.67;6.88;;;15.90;99.90;;;;;;5009665;28;20077;-66
2023/10/08 09:43:22;;;;;;;22.42;6.35;;;16.10;99.90;;;;;;5009657;28;20053;-66
2023/10/08 09:46:15;;;;;;;19.10;7.17;;;16.20;99.90;;;;;;5008387;28;20532;-66
2023/10/08 09:48:54;;;;;;;18.83;6.40;;;16.40;99.90;;;;;;5000726;28;20505;-65
2023/10/08 09:51:24;;;;;;;17.55;5.65;;;16.60;99.90;;;;;;4991689;28;20046;-64
2023/10/08 09:54:10;;;;;;;18.35;6.75;;;16.80;99.90;;;;;;5000379;28;20042;-66
2023/10/08 09:56:40;;;;;;;16.65;5.63;;;17.00;99.90;;;;;;4988694;28;20054;-66
2023/10/08 09:59:09;;;;;;;18.95;6.10;;;17.30;99.90;;;;;;5009021;28;20054;-67
2023/10/08 10:01:38;;;;;;;15.60;5.57;;;17.40;99.90;;;;;;5007845;28;20042;-62
2023/10/08 10:04:10;;;;;;;15.25;5.57;;;17.60;99.90;;;;;;5008062;28;20053;-66
2023/10/08 10:06:42;;;;;;;22.10;5.50;;;17.70;99.90;;;;;;4988247;28;20054;-66
2023/10/08 10:09:21;;;;;;;19.05;6.05;;;17.80;99.90;;;;;;5007164;28;20049;-66
2023/10/08 10:11:51;;;;;;;16.80;6.13;;;17.90;99.90;;;;;;5008978;28;20056;-66
2023/10/08 10:14:23;;;;;;;15.73;5.03;;;18.00;99.90;;;;;;5008784;28;20398;-66
2023/10/08 10:17:14;;;;;;;13.05;4.50;;;18.10;99.90;;;;;;5007196;28;20054;-66
2023/10/08 10:20:03;;;;;;;13.60;4.45;;;18.20;99.90;;;;;;4999977;28;20042;-66
2023/10/08 10:22:35;;;;;;;6.82;2.70;;;18.30;99.90;;;;;;4993731;28;20042;-63
2023/10/08 10:25:16;;;;;;;10.90;3.53;;;18.30;99.90;;;;;;5008337;28;20062;-63
2023/10/08 10:27:51;;;;;;;10.20;3.90;;;18.30;99.90;;;;;;5008210;28;20057;-62
2023/10/08 10:30:19;;;;;;;11.00;3.50;;;18.20;99.90;;;;;;5007263;28;20050;-65
2023/10/08 10:32:54;;;;;;;8.30;3.33;;;18.20;99.90;;;;;;5008169;28;20085;-67
2023/10/08 10:35:23;;;;;;;10.90;3.40;;;18.20;99.90;;;;;;5006091;28;20073;-63
2023/10/08 10:37:51;;;;;;;6.20;3.35;;;18.10;99.90;;;;;;5007529;28;20045;-61
2023/10/08 10:40:29;;;;;;;9.57;3.63;;;18.10;99.90;;;;;;5007256;28;20046;-61
2023/10/08 10:42:57;;;;;;;11.13;3.83;;;18.10;99.90;;;;;;5004053;28;20046;-61
2023/10/08 10:45:43;;;;;;;9.60;4.10;;;18.10;99.90;;;;;;4992153;28;20046;-64
2023/10/08 10:48:13;;;;;;;10.55;4.03;;;18.20;99.90;;;;;;4994110;28;20409;-60
2023/10/08 10:53:29;;;;;;;9.27;4.22;;;18.30;99.90;;;;;;5000841;28;20046;-65
2023/10/08 10:56:09;;;;;;;11.15;4.55;;;18.40;99.90;;;;;;5008186;28;20128;-66
2023/10/08 10:58:41;;;;;;;9.93;3.90;;;18.50;99.90;;;;;;5007799;28;20104;-64
2023/10/08 11:01:23;;;;;;;12.35;4.13;;;18.70;99.90;;;;;;5008400;28;20052;-61
2023/10/08 11:03:53;;;;;;;18.55;4.20;;;18.90;99.90;;;;;;5006533;28;20485;-64
2023/10/08 11:06:25;;;;;;;7.35;3.08;;;19.10;99.90;;;;;;4993396;28;20631;-61
2023/10/08 11:08:53;;;;;;;8.65;3.10;;;19.20;99.90;;;;;;4993291;28;20034;-62
2023/10/08 11:11:29;;;;;;;8.52;2.90;;;19.50;99.90;;;;;;4998254;28;20057;-62
2023/10/08 11:14:00;;;;;;;9.27;3.50;;;19.70;99.90;;;;;;4987444;28;20042;-61
2023/10/08 11:16:31;;;;;;;10.60;3.55;;;19.90;99.90;;;;;;5007879;28;20049;-63
2023/10/08 11:19:06;;;;;;;7.85;3.20;;;20.10;99.90;;;;;;5006992;28;20042;-65
2023/10/08 11:21:53;;;;;;;7.10;2.92;;;20.30;99.90;;;;;;4991747;28;20049;-67
2023/10/08 11:24:33;;;;;;;7.80;3.60;;;20.60;99.90;;;;;;4998300;28;20049;-66
2023/10/08 11:27:38;;;;;;;8.88;2.78;;;20.80;99.90;;;;;;5004750;28;20046;-66
2023/10/08 11:30:00;;;;;;;7.28;2.83;;;21.10;99.90;;;;;;5003244;28;20494;-64
2023/10/08 11:32:32;;;;;;;8.75;3.55;;;21.30;99.90;;;;;;5006961;28;20054;-65
2023/10/08 11:35:00;;;;;;;9.85;3.58;;;21.50;99.90;;;;;;5005702;28;20433;-65
2023/10/08 11:37:30;;;;;;;10.15;3.22;;;21.80;99.90;;;;;;4988134;28;20486;-63
2023/10/08 11:39:58;;;;;;;9.40;3.20;;;22.00;99.90;;;;;;5008109;28;20042;-66
2023/10/08 11:45:17;;;;;;;9.10;3.28;;;22.60;99.90;;;;;;5006925;28;20050;-64
2023/10/08 11:47:48;;;;;;;9.90;3.05;;;22.80;99.90;;;;;;4987744;28;20034;-65
2023/10/08 11:50:19;;;;;;;5.90;2.50;;;23.10;99.90;;;;;;5001804;28;20057;-66
2023/10/08 11:52:46;;;;;;;;;;;23.30;99.90;;;;;;4998726;28;20118;-66
2023/10/08 11:55:18;;;;;;;7.30;2.50;;;23.50;99.90;;;;;;5005680;28;19922;-67
2023/10/08 11:57:50;;;;;;;4.40;2.20;;;23.80;99.90;;;;;;4994654;28;20081;-65
2023/10/08 12:00:24;;;;;;;4.82;2.58;;;23.90;99.90;;;;;;5011613;28;20045;-63
2023/10/08 12:03:01;;;;;;;5.30;2.38;;;23.90;99.90;;;;;;4996202;28;20049;-67
2023/10/08 12:05:31;;;;;;;11.02;2.72;;;23.70;99.90;;;;;;5011000;28;20209;-64
2023/10/08 12:08:00;;;;;;;;;;;23.50;99.90;;;;;;5011440;28;20481;-65
2023/10/08 12:10:31;;;;;;;9.70;2.60;;;23.50;99.90;;;;;;4995354;28;19928;-65
2023/10/08 12:12:59;;;;;;;5.57;2.15;;;23.60;99.90;;;;;;4998269;28;20057;-63
2023/10/08 12:15:38;;;;;;;7.13;2.42;;;23.80;99.90;;;;;;5008615;28;20050;-64
2023/10/08 12:18:15;;;;;;;4.65;2.50;;;24.10;99.90;;;;;;4997618;28;20050;-65
2023/10/08 12:20:47;;;;;;;7.05;2.83;;;24.30;99.90;;;;;;5004651;28;20080;-64
2023/10/08 12:23:29;;;;;;;6.45;2.40;;;24.20;99.90;;;;;;5000003;28;20053;-64
2023/10/08 12:25:56;;;;;;;7.65;3.40;;;24.10;99.90;;;;;;4990405;28;20057;-65
2023/10/08 12:28:25;;;;;;;4.43;2.40;;;24.00;99.90;;;;;;4999969;28;20054;-66
2023/10/08 12:30:53;;;;;;;8.35;3.08;;;23.80;99.90;;;;;;5001485;28;20046;-65
2023/10/08 12:33:25;;;;;;;8.02;3.03;;;23.60;99.90;;;;;;4977958;28;20482;-61
2023/10/08 12:35:55;;;;;;;4.97;2.60;;;23.50;99.90;;;;;;5007788;28;20511;-64
2023/10/08 12:38:27;;;;;;;4.35;2.53;;;23.40;99.90;;;;;;5001982;28;20050;-63
2023/10/08 12:40:55;;;;;;;5.68;2.50;;;23.40;99.90;;;;;;5008387;28;20050;-64
2023/10/08 12:43:27;;;;;;;5.47;2.85;;;23.20;99.90;;;;;;5008890;28;20049;-64
2023/10/08 12:45:56;;;;;;;7.00;2.78;;;23.00;99.90;;;;;;5005196;28;20042;-63
2023/10/08 12:48:26;;;;;;;5.72;2.90;;;22.80;99.90;;;;;;4999704;28;20050;-64
2023/10/08 12:50:58;;;;;;;10.77;3.08;;;22.70;99.90;;;;;;5008938;28;20053;-63
2023/10/08 12:53:33;;;;;;;8.43;2.75;;;22.70;99.90;;;;;;5009510;28;20045;-63
2023/10/08 12:56:14;;;;;;;6.45;2.80;;;23.00;99.90;;;;;;5003559;28;20050;-64
2023/10/08 12:58:48;;;;;;;8.00;2.67;;;23.30;99.90;;;;;;5002012;28;20500;-63
2023/10/08 13:01:17;;;;;;;7.38;2.42;;;23.40;99.90;;;;;;5008653;28;20046;-65
2023/10/08 13:03:49;;;;;;;7.40;2.28;;;23.50;99.90;;;;;;5006261;28;20050;-67
2023/10/08 13:06:22;;;;;;;11.85;2.60;;;23.70;99.90;;;;;;4991107;28;20041;-66
2023/10/08 13:08:52;;;;;;;6.35;2.72;;;24.00;99.90;;;;;;5001431;28;20042;-68
2023/10/08 13:11:22;;;;;;;7.97;2.45;;;24.10;99.90;;;;;;5001542;28;20053;-66
2023/10/08 13:13:57;;;;;;;5.78;2.50;;;24.10;99.90;;;;;;5009760;28;20377;-63
2023/10/08 13:16:37;;;;;;;6.18;2.65;;;24.00;99.90;;;;;;5004199;28;20073;-63
2023/10/08 13:19:08;;;;;;;5.80;2.28;;;24.20;99.90;;;;;;5003019;28;20049;-64
2023/10/08 13:21:36;;;;;;;4.82;2.30;;;24.40;99.90;;;;;;4990148;28;20053;-65
2023/10/08 13:24:08;;;;;;;7.38;2.75;;;24.90;99.90;;;;;;5000287;28;20042;-67
2023/10/08 13:26:38;;;;;;;4.28;2.10;;;25.60;99.90;;;;;;4991726;28;20053;-67
2023/10/08 13:29:09;;;;;;;6.57;2.30;;;26.30;99.90;;;;;;5003253;28;20500;-68
2023/10/08 13:31:37;;;;;;;2.92;2.03;;;26.90;99.90;;;;;;4992979;28;20394;-68
2023/10/08 13:34:08;;;;;;;4.10;2.45;;;27.40;99.90;;;;;;5002865;28;20696;-68
2023/10/08 13:36:40;;;;;;;7.07;2.85;;;27.80;99.30;;;;;;5009278;28;20057;-68
2023/10/08 13:39:09;;;;;;;7.80;2.45;;;28.10;98.80;;;;;;5002715;28;20057;-68
2023/10/08 13:41:41;;;;;;;5.10;2.50;;;28.30;97.90;;;;;;4990310;28;20345;-64
2023/10/08 13:44:12;;;;;;;6.60;2.92;;;28.20;97.90;;;;;;4989336;28;20074;-64
2023/10/08 13:46:48;;;;;;;5.03;2.40;;;28.10;97.50;;;;;;4987668;28;20046;-65
2023/10/08 13:49:18;;;;;;;4.60;2.38;;;28.10;97.50;;;;;;4999438;28;20527;-65
2023/10/08 13:51:49;;;;;;;7.15;2.22;;;28.00;97.00;;;;;;5004808;28;20104;-66
2023/10/08 13:54:20;;;;;;;4.53;2.10;;;27.70;96.20;;;;;;5006850;28;20050;-63
2023/10/08 13:56:48;;;;;;;5.43;2.35;;;27.30;96.30;;;;;;5005884;28;20068;-66
2023/10/08 13:59:16;;;;;;;4.68;2.53;;;26.70;96.20;;;;;;5009382;28;20050;-67
2023/10/08 14:01:51;;;;;;;9.15;2.55;;;26.10;96.70;;;;;;5007355;28;20046;-68
2023/10/08 14:04:26;;;;;;;5.20;2.33;;;25.50;97.20;;;;;;4988081;28;20077;-67
2023/10/08 14:06:54;;;;;;;6.22;2.40;;;25.10;98.20;;;;;;5007419;28;20042;-67
2023/10/08 14:09:31;;;;;;;5.05;2.53;;;24.70;98.50;;;;;;5007724;28;20046;-65
2023/10/08 14:12:00;;;;;;;5.85;2.28;;;24.40;99.10;;;;;;4994918;28;20046;-64
2023/10/08 14:14:30;;;;;;;8.68;2.33;;;24.20;99.60;;;;;;5008725;28;20049;-68
2023/10/08 14:17:11;;;;;;;;;;;24.10;99.70;;;;;;5009227;28;20041;-67
2023/10/08 14:19:59;;;;;;;;;;;24.00;99.90;;;;;;5008964;28;19922;-64
2023/10/08 14:22:27;;;;;;;6.03;2.17;;;23.90;99.90;;;;;;5007052;28;20257;-68
2023/10/08 14:25:01;;;;;;;5.20;2.50;;;23.90;99.90;;;;;;5008222;28;20048;-68
2023/10/08 14:27:33;;;;;;;6.03;1.90;;;23.80;99.90;;;;;;4993442;28;20675;-66
2023/10/08 14:30:04;;;;;;;4.53;2.40;;;23.70;99.60;;;;;;5007461;28;20053;-66
2023/10/08 14:32:34;;;;;;;4.32;1.90;;;23.70;99.00;;;;;;5005820;28;20520;-68
2023/10/08 14:43:34;;;;;;;3.75;2.33;;;23.40;98.70;;;;;;4969419;28;20043;-67